CYKZ

Buttonville Municipal Airport

Toronto, Ontario, Canada
METAR CYKZ 150000Z 34007KT 15SM FEW050 BKN210 27/19 A2986 RMK SC1CS5 SLP110 DENSITY ALT 2200FT
Observed Flight Rules
Aug-15 @ 00:00 UTC (an hour ago) Visual Flight Rules
Wind Visibility Clouds
340° at 7 knots 15 miles
  • Few at 5,000' AGL
  • Broken at 21,000' AGL
Temperatures Readings
Current 27°C / 81°F
Dewpoint 19°C / 66°F
Humidity 62%
Altimeter 29.86" Hg
Pressure 1011 hPa
Elevation 198
METAR CYKZ 150000Z 34007KT 15SM FEW050 BKN210 27/19 A2986 RMK SC1CS5 SLP110 DENSITY ALT 2200FT
Observed Flight Rules
Aug-15 @ 00:00 UTC
(an hour ago)
VFR
Wind Visibility
340° at 7 knots 15 miles
Clouds
  • Few at 5,000' AGL
  • Broken at 21,000' AGL
Temperature Dewpoint
27°C / 81°F 19°C / 66°F
Humidity Altimeter Pressure
62% 29.86" Hg 1011 hPa